Time;durP1;ratioP1;P1;durP2;ratioP2;P2;SDS_P1;SDS_P2;PMS_P1;PMS_P2;Temp;Humidity;BMP_temperature;BMP_pressure;BME280_temperature;BME280_humidity;BME280_pressure;Samples;Min_cycle;Max_cycle;Signal;HPM_P1;HPM_P2
2021/12/13 08:53:54;;;;;;;;;;;25.20;28.30;;;;;;507761;234;1124;-47
2021/12/13 08:55:55;;;;;;;;;;;25.10;28.30;;;;;;508115;234;2106;-47
2021/12/13 08:57:56;;;;;;;;;;;25.10;28.30;;;;;;508232;234;1236;-47
2021/12/13 08:59:57;;;;;;;;;;;25.10;28.30;;;;;;508467;234;1416;-47
2021/12/13 09:02:00;;;;;;;;;;;25.20;28.40;;;;;;508176;234;1338;-47
2021/12/13 09:04:00;;;;;;;;;;;25.10;28.40;;;;;;508232;234;2120;-47
2021/12/13 09:06:02;;;;;;;;;;;25.10;28.40;;;;;;508320;234;1279;-47
2021/12/13 09:08:04;;;;;;;;;;;25.10;28.40;;;;;;508311;234;1230;-47
2021/12/13 09:10:04;;;;;;;;;;;25.10;28.40;;;;;;508245;234;2379;-47
2021/12/13 09:12:07;;;;;;;;;;;25.20;28.40;;;;;;508219;234;1310;-47
2021/12/13 09:14:07;;;;;;;;;;;25.20;28.40;;;;;;508049;234;2137;-46
2021/12/13 09:16:08;;;;;;;;;;;25.20;28.50;;;;;;508136;234;2184;-47
2021/12/13 09:18:10;;;;;;;;;;;25.20;28.50;;;;;;508228;234;1147;-47
2021/12/13 09:20:11;;;;;;;;;;;25.20;28.40;;;;;;508406;234;1235;-47
2021/12/13 09:22:12;;;;;;;;;;;25.20;28.40;;;;;;508209;234;1227;-47
2021/12/13 09:24:14;;;;;;;;;;;25.20;28.50;;;;;;508291;234;1251;-46
2021/12/13 09:26:15;;;;;;;;;;;25.20;28.50;;;;;;508482;234;1206;-47
2021/12/13 09:28:16;;;;;;;;;;;25.10;28.50;;;;;;508226;234;1130;-47
2021/12/13 09:30:18;;;;;;;;;;;25.20;28.50;;;;;;508108;234;1037;-47
2021/12/13 09:32:19;;;;;;;;;;;25.10;28.50;;;;;;507971;234;1287;-47
2021/12/13 09:34:21;;;;;;;;;;;25.10;28.50;;;;;;508032;234;1061;-47
2021/12/13 09:36:22;;;;;;;;;;;25.10;28.50;;;;;;508049;234;2160;-47
2021/12/13 09:38:23;;;;;;;;;;;25.20;28.60;;;;;;508027;234;1068;-47
2021/12/13 09:40:25;;;;;;;;;;;25.10;28.50;;;;;;508252;234;1034;-47
2021/12/13 09:42:26;;;;;;;;;;;25.20;28.60;;;;;;508204;234;1286;-47
2021/12/13 09:44:31;;;;;;;;;;;25.20;28.60;;;;;;508304;234;1027;-47
2021/12/13 09:46:29;;;;;;;;;;;25.20;28.60;;;;;;507963;234;2502;-47
2021/12/13 09:48:30;;;;;;;;;;;25.20;28.60;;;;;;508177;234;1226;-47
2021/12/13 09:50:31;;;;;;;;;;;25.20;28.60;;;;;;508173;234;1085;-47
2021/12/13 09:52:33;;;;;;;;;;;25.20;28.60;;;;;;507989;234;1595;-47
2021/12/13 09:54:34;;;;;;;;;;;25.20;28.60;;;;;;508147;234;1201;-47
2021/12/13 09:56:36;;;;;;;;;;;25.20;28.70;;;;;;508239;234;1240;-47
2021/12/13 09:58:37;;;;;;;;;;;25.20;28.70;;;;;;508338;234;1962;-47
2021/12/13 10:00:40;;;;;;;;;;;25.10;28.60;;;;;;508174;234;1019;-47
2021/12/13 10:02:40;;;;;;;;;;;25.10;28.70;;;;;;507997;234;2325;-46
2021/12/13 10:04:41;;;;;;;;;;;25.20;28.70;;;;;;508248;234;1103;-47
2021/12/13 10:06:42;;;;;;;;;;;25.20;28.70;;;;;;508377;234;1294;-47
2021/12/13 10:08:44;;;;;;;;;;;25.20;28.70;;;;;;508541;234;1248;-47
2021/12/13 10:10:45;;;;;;;;;;;25.20;28.70;;;;;;508282;234;1082;-47
2021/12/13 10:12:47;;;;;;;;;;;25.20;28.70;;;;;;508370;234;1195;-47
2021/12/13 10:14:48;;;;;;;;;;;25.20;28.70;;;;;;508087;234;2176;-47
2021/12/13 10:16:49;;;;;;;;;;;25.20;28.70;;;;;;508052;234;1247;-47
2021/12/13 10:18:51;;;;;;;;;;;25.20;28.70;;;;;;508404;234;1203;-47
2021/12/13 10:20:52;;;;;;;;;;;25.20;28.70;;;;;;508301;234;1319;-47
2021/12/13 10:22:53;;;;;;;;;;;25.20;28.70;;;;;;508324;234;1138;-47
2021/12/13 10:24:55;;;;;;;;;;;25.20;28.70;;;;;;508382;234;1240;-47
2021/12/13 10:26:56;;;;;;;;;;;25.20;28.70;;;;;;508228;234;1378;-47
2021/12/13 10:28:57;;;;;;;;;;;25.20;28.70;;;;;;508187;234;1113;-47
2021/12/13 10:30:59;;;;;;;;;;;25.20;28.70;;;;;;508205;234;1119;-47
2021/12/13 10:33:00;;;;;;;;;;;25.20;28.70;;;;;;508819;234;1225;-47
2021/12/13 10:35:01;;;;;;;;;;;25.20;28.70;;;;;;508468;234;2152;-47
2021/12/13 10:37:03;;;;;;;;;;;25.20;28.70;;;;;;508521;234;1259;-47
2021/12/13 10:39:04;;;;;;;;;;;25.20;28.70;;;;;;508020;234;1050;-47
2021/12/13 10:41:05;;;;;;;;;;;25.20;28.70;;;;;;507940;234;1152;-47
2021/12/13 10:43:07;;;;;;;;;;;25.20;28.70;;;;;;508764;234;1261;-47
2021/12/13 10:45:08;;;;;;;;;;;25.20;28.70;;;;;;508311;234;1044;-47
2021/12/13 10:47:09;;;;;;;;;;;25.20;28.70;;;;;;508590;233;1415;-46
2021/12/13 10:49:11;;;;;;;;;;;25.20;28.70;;;;;;508272;234;1033;-47
2021/12/13 10:51:12;;;;;;;;;;;25.20;28.80;;;;;;508508;234;1325;-47
2021/12/13 10:53:14;;;;;;;;;;;25.20;28.80;;;;;;508709;234;1091;-47
2021/12/13 10:55:16;;;;;;;;;;;25.20;28.80;;;;;;508267;234;2183;-47
2021/12/13 10:57:16;;;;;;;;;;;25.20;28.80;;;;;;508382;234;1475;-47
2021/12/13 10:59:18;;;;;;;;;;;25.20;28.70;;;;;;508300;234;1092;-47
2021/12/13 11:01:19;;;;;;;;;;;25.20;28.80;;;;;;508363;234;1083;-47
2021/12/13 11:03:20;;;;;;;;;;;25.20;28.80;;;;;;508266;234;1196;-47
2021/12/13 11:05:22;;;;;;;;;;;25.20;28.80;;;;;;508230;234;1040;-47
2021/12/13 11:07:23;;;;;;;;;;;25.20;28.80;;;;;;508368;234;1326;-47
2021/12/13 11:09:24;;;;;;;;;;;25.30;28.80;;;;;;508323;234;1124;-47
2021/12/13 11:11:25;;;;;;;;;;;25.20;28.80;;;;;;508143;234;1136;-47
2021/12/13 11:13:27;;;;;;;;;;;25.20;28.80;;;;;;508029;234;1201;-47
2021/12/13 11:15:28;;;;;;;;;;;25.20;28.80;;;;;;507958;234;2168;-47
2021/12/13 11:17:29;;;;;;;;;;;25.20;28.80;;;;;;508027;234;1363;-47
2021/12/13 11:19:31;;;;;;;;;;;25.20;28.80;;;;;;508093;234;1061;-47
2021/12/13 11:21:32;;;;;;;;;;;25.20;28.80;;;;;;507957;234;1249;-47
2021/12/13 11:23:34;;;;;;;;;;;25.30;28.90;;;;;;508267;234;1184;-47
2021/12/13 11:25:35;;;;;;;;;;;25.30;28.90;;;;;;508256;234;1180;-47
2021/12/13 11:27:37;;;;;;;;;;;25.30;28.90;;;;;;508264;234;1246;-47
2021/12/13 11:29:38;;;;;;;;;;;25.30;28.90;;;;;;508259;234;1155;-47
2021/12/13 11:31:42;;;;;;;;;;;25.30;28.90;;;;;;508085;234;1213;-47
2021/12/13 11:33:42;;;;;;;;;;;25.30;28.90;;;;;;508091;234;2310;-47
2021/12/13 11:35:42;;;;;;;;;;;25.30;28.90;;;;;;508205;233;2184;-47
2021/12/13 11:37:43;;;;;;;;;;;25.30;28.90;;;;;;508236;234;1151;-47
2021/12/13 11:39:44;;;;;;;;;;;25.30;28.90;;;;;;508205;234;1146;-47
2021/12/13 11:41:46;;;;;;;;;;;25.30;28.90;;;;;;508303;234;1403;-47
2021/12/13 11:43:47;;;;;;;;;;;25.20;28.80;;;;;;508893;234;1168;-46
2021/12/13 11:45:48;;;;;;;;;;;25.30;28.90;;;;;;508957;234;1165;-47
2021/12/13 11:47:49;;;;;;;;;;;25.30;28.90;;;;;;508987;234;1021;-47
2021/12/13 11:49:51;;;;;;;;;;;25.20;28.90;;;;;;508417;234;1091;-47
2021/12/13 11:51:54;;;;;;;;;;;25.20;28.90;;;;;;508253;234;1218;-47
2021/12/13 11:53:54;;;;;;;;;;;25.20;29.00;;;;;;508168;234;2241;-47
2021/12/13 11:55:55;;;;;;;;;;;25.20;28.90;;;;;;508203;234;2180;-47
2021/12/13 11:57:56;;;;;;;;;;;25.30;29.00;;;;;;508308;234;1048;-46
2021/12/13 11:59:57;;;;;;;;;;;25.20;28.90;;;;;;508388;234;1211;-47
2021/12/13 12:02:01;;;;;;;;;;;25.30;29.00;;;;;;508382;234;1213;-47
2021/12/13 12:04:01;;;;;;;;;;;25.30;29.00;;;;;;508564;234;2292;-47
2021/12/13 12:06:03;;;;;;;;;;;25.30;29.00;;;;;;508061;234;1229;-47
2021/12/13 12:08:04;;;;;;;;;;;25.30;29.00;;;;;;508238;234;1171;-47
2021/12/13 12:10:05;;;;;;;;;;;25.20;28.90;;;;;;508259;234;1074;-47
2021/12/13 12:12:07;;;;;;;;;;;25.30;29.00;;;;;;508211;234;1176;-47
2021/12/13 12:14:10;;;;;;;;;;;25.20;29.00;;;;;;508274;234;1202;-47
2021/12/13 12:16:09;;;;;;;;;;;25.30;29.00;;;;;;508099;233;2172;-47
2021/12/13 12:18:10;;;;;;;;;;;25.30;29.10;;;;;;508256;234;1072;-47
2021/12/13 12:20:12;;;;;;;;;;;25.20;29.00;;;;;;508148;234;1112;-47
2021/12/13 12:22:15;;;;;;;;;;;25.20;29.00;;;;;;508303;234;1189;-47
2021/12/13 12:24:15;;;;;;;;;;;25.30;29.10;;;;;;507860;234;2282;-47
2021/12/13 12:26:16;;;;;;;;;;;25.30;29.00;;;;;;508108;234;1161;-47
2021/12/13 12:28:18;;;;;;;;;;;25.20;29.00;;;;;;508877;234;1185;-47
2021/12/13 12:30:19;;;;;;;;;;;25.30;29.10;;;;;;508068;234;1127;-47
2021/12/13 12:32:21;;;;;;;;;;;25.30;29.00;;;;;;508031;234;1247;-47
2021/12/13 12:34:22;;;;;;;;;;;25.30;29.00;;;;;;508219;234;1264;-47
2021/12/13 12:36:24;;;;;;;;;;;25.30;29.00;;;;;;508145;234;2192;-47
2021/12/13 12:38:25;;;;;;;;;;;25.30;29.10;;;;;;508180;234;1208;-46
2021/12/13 12:40:26;;;;;;;;;;;25.30;29.10;;;;;;508028;234;1153;-47
2021/12/13 12:42:28;;;;;;;;;;;25.30;29.10;;;;;;508075;234;1057;-47
2021/12/13 12:44:29;;;;;;;;;;;25.30;29.10;;;;;;508084;234;1190;-47
2021/12/13 12:46:31;;;;;;;;;;;25.30;29.10;;;;;;508038;234;1123;-47
2021/12/13 12:48:32;;;;;;;;;;;25.30;29.20;;;;;;508034;233;1824;-47
2021/12/13 12:50:33;;;;;;;;;;;25.30;29.20;;;;;;508191;234;1225;-47
2021/12/13 12:52:34;;;;;;;;;;;25.20;29.20;;;;;;508259;234;1224;-47
2021/12/13 12:54:36;;;;;;;;;;;25.30;29.20;;;;;;508178;234;1050;-47
2021/12/13 12:56:37;;;;;;;;;;;25.30;29.20;;;;;;508186;234;2117;-47
2021/12/13 12:58:39;;;;;;;;;;;25.30;29.20;;;;;;508147;234;1158;-46
2021/12/13 13:00:40;;;;;;;;;;;25.30;29.20;;;;;;508226;234;1315;-47
2021/12/13 13:02:41;;;;;;;;;;;25.30;29.20;;;;;;508424;234;1449;-47
2021/12/13 13:04:43;;;;;;;;;;;25.30;29.20;;;;;;508142;234;1127;-47
2021/12/13 13:06:44;;;;;;;;;;;25.30;29.20;;;;;;508163;234;1296;-47
2021/12/13 13:08:46;;;;;;;;;;;25.30;29.20;;;;;;508058;234;1098;-46
2021/12/13 13:10:50;;;;;;;;;;;25.30;29.20;;;;;;508173;234;1322;-47
2021/12/13 13:12:51;;;;;;;;;;;25.30;29.30;;;;;;508286;234;1090;-47
2021/12/13 13:14:52;;;;;;;;;;;25.30;29.30;;;;;;507885;230;1233;-47
2021/12/13 13:16:54;;;;;;;;;;;25.30;29.30;;;;;;508213;234;2189;-47
2021/12/13 13:18:55;;;;;;;;;;;25.30;29.30;;;;;;508182;234;1038;-47
2021/12/13 13:20:57;;;;;;;;;;;25.30;29.30;;;;;;508084;234;1304;-47
2021/12/13 13:22:58;;;;;;;;;;;25.30;29.30;;;;;;508469;234;2149;-46
2021/12/13 13:24:59;;;;;;;;;;;25.30;29.40;;;;;;507932;234;1058;-47
2021/12/13 13:27:00;;;;;;;;;;;25.30;29.30;;;;;;507907;234;1213;-47
2021/12/13 13:29:02;;;;;;;;;;;25.30;29.30;;;;;;508107;234;1420;-47
2021/12/13 13:31:03;;;;;;;;;;;25.30;29.30;;;;;;508184;234;1266;-47
2021/12/13 13:33:04;;;;;;;;;;;25.30;29.40;;;;;;508281;234;1169;-47
2021/12/13 13:35:06;;;;;;;;;;;25.30;29.40;;;;;;508086;234;1303;-47
2021/12/13 13:37:07;;;;;;;;;;;25.30;29.40;;;;;;507977;234;2132;-47
2021/12/13 13:39:08;;;;;;;;;;;25.30;29.40;;;;;;508210;234;1229;-47
2021/12/13 13:41:10;;;;;;;;;;;25.30;29.40;;;;;;508046;234;1311;-47
2021/12/13 13:43:11;;;;;;;;;;;25.30;29.40;;;;;;508223;234;1217;-47
2021/12/13 13:45:13;;;;;;;;;;;25.30;29.40;;;;;;508297;234;1236;-47
2021/12/13 13:47:14;;;;;;;;;;;25.30;29.40;;;;;;508326;234;1336;-47
2021/12/13 13:49:15;;;;;;;;;;;25.40;29.40;;;;;;507984;234;1058;-47
2021/12/13 13:51:16;;;;;;;;;;;25.30;29.40;;;;;;507926;234;1284;-47
2021/12/13 13:53:18;;;;;;;;;;;25.30;29.40;;;;;;508095;234;1141;-47
2021/12/13 13:55:19;;;;;;;;;;;25.30;29.40;;;;;;508246;234;1043;-46
2021/12/13 13:57:20;;;;;;;;;;;25.30;29.40;;;;;;508073;234;2125;-47
2021/12/13 13:59:23;;;;;;;;;;;25.30;29.50;;;;;;508409;234;1249;-47
2021/12/13 14:01:23;;;;;;;;;;;25.30;29.50;;;;;;508208;234;2002;-47
2021/12/13 14:03:25;;;;;;;;;;;25.30;29.50;;;;;;508496;234;1184;-47
2021/12/13 14:05:26;;;;;;;;;;;25.30;29.50;;;;;;508036;234;1275;-47
2021/12/13 14:07:28;;;;;;;;;;;25.30;29.50;;;;;;508071;234;1138;-47
2021/12/13 14:09:29;;;;;;;;;;;25.30;29.50;;;;;;507884;234;1191;-47
2021/12/13 14:11:31;;;;;;;;;;;25.30;29.50;;;;;;508155;234;1266;-47
2021/12/13 14:13:31;;;;;;;;;;;25.30;29.50;;;;;;508347;234;1772;-47
2021/12/13 14:15:33;;;;;;;;;;;25.40;29.60;;;;;;508128;234;1127;-47
2021/12/13 14:17:34;;;;;;;;;;;25.30;29.50;;;;;;508031;234;2180;-47
2021/12/13 14:19:35;;;;;;;;;;;25.30;29.50;;;;;;508396;234;1188;-47
2021/12/13 14:21:37;;;;;;;;;;;25.30;29.50;;;;;;508393;234;1273;-47
2021/12/13 14:23:38;;;;;;;;;;;25.40;29.50;;;;;;508150;234;1154;-47
2021/12/13 14:25:39;;;;;;;;;;;25.40;29.50;;;;;;508147;234;1331;-47
2021/12/13 14:27:40;;;;;;;;;;;25.40;29.60;;;;;;508215;234;1993;-47
2021/12/13 14:29:42;;;;;;;;;;;25.40;29.60;;;;;;508125;234;1094;-47
2021/12/13 14:31:43;;;;;;;;;;;25.30;29.50;;;;;;508306;234;1575;-47
2021/12/13 14:33:44;;;;;;;;;;;25.40;29.50;;;;;;508674;234;1031;-46
2021/12/13 14:35:46;;;;;;;;;;;25.40;29.50;;;;;;508230;234;1292;-47
2021/12/13 14:37:47;;;;;;;;;;;25.40;29.60;;;;;;508394;234;2187;-47
2021/12/13 14:39:50;;;;;;;;;;;25.40;29.60;;;;;;508241;234;1038;-47
2021/12/13 14:41:50;;;;;;;;;;;25.40;29.60;;;;;;508181;234;2209;-47
2021/12/13 14:43:51;;;;;;;;;;;25.40;29.60;;;;;;508428;234;1265;-47
2021/12/13 14:45:52;;;;;;;;;;;25.30;29.50;;;;;;508179;234;1335;-47
2021/12/13 14:47:56;;;;;;;;;;;25.40;29.60;;;;;;508554;234;1035;-47
2021/12/13 14:49:55;;;;;;;;;;;25.40;29.60;;;;;;508419;234;2195;-47
2021/12/13 14:51:58;;;;;;;;;;;25.40;29.60;;;;;;508121;234;1215;-47
2021/12/13 14:53:59;;;;;;;;;;;25.40;29.60;;;;;;508315;234;1115;-47
2021/12/13 14:56:00;;;;;;;;;;;25.40;29.60;;;;;;508316;234;1182;-47
2021/12/13 14:58:01;;;;;;;;;;;25.40;29.50;;;;;;508369;234;2175;-47
2021/12/13 15:00:02;;;;;;;;;;;25.40;29.60;;;;;;508029;234;1359;-47
2021/12/13 15:02:04;;;;;;;;;;;25.40;29.60;;;;;;508058;234;1220;-47
2021/12/13 15:04:05;;;;;;;;;;;25.40;29.60;;;;;;508282;234;1076;-47
2021/12/13 15:06:07;;;;;;;;;;;25.40;29.60;;;;;;508354;234;1048;-46
2021/12/13 15:08:08;;;;;;;;;;;25.40;29.50;;;;;;508380;234;1243;-47
2021/12/13 15:10:09;;;;;;;;;;;25.40;29.60;;;;;;508357;234;1091;-47
2021/12/13 15:12:12;;;;;;;;;;;25.40;29.60;;;;;;508205;234;1416;-47
2021/12/13 15:14:12;;;;;;;;;;;25.40;29.60;;;;;;508273;234;2331;-47
2021/12/13 15:16:14;;;;;;;;;;;25.40;29.60;;;;;;508388;234;1288;-47
2021/12/13 15:18:15;;;;;;;;;;;25.40;29.60;;;;;;508223;234;2175;-47
2021/12/13 15:20:16;;;;;;;;;;;25.40;29.60;;;;;;508007;234;1176;-47
2021/12/13 15:22:17;;;;;;;;;;;25.40;29.60;;;;;;508614;234;1282;-47
2021/12/13 15:24:19;;;;;;;;;;;25.40;29.60;;;;;;508448;234;1236;-47
2021/12/13 15:26:21;;;;;;;;;;;25.40;29.60;;;;;;508405;234;1177;-47
2021/12/13 15:28:21;;;;;;;;;;;25.40;29.60;;;;;;508288;234;2376;-47
2021/12/13 15:30:23;;;;;;;;;;;25.40;29.60;;;;;;508343;234;1392;-47
2021/12/13 15:32:25;;;;;;;;;;;25.40;29.60;;;;;;508283;234;1314;-47
2021/12/13 15:34:26;;;;;;;;;;;25.40;29.60;;;;;;508330;234;1284;-47
2021/12/13 15:36:28;;;;;;;;;;;25.40;29.60;;;;;;508410;234;1276;-47
2021/12/13 15:38:29;;;;;;;;;;;25.40;29.60;;;;;;508250;234;2165;-47
2021/12/13 15:40:31;;;;;;;;;;;25.50;29.60;;;;;;508265;234;1237;-47
2021/12/13 15:42:33;;;;;;;;;;;25.50;29.70;;;;;;508371;234;1173;-47
2021/12/13 15:44:34;;;;;;;;;;;25.40;29.60;;;;;;508318;234;2299;-47
2021/12/13 15:46:35;;;;;;;;;;;25.40;29.60;;;;;;508346;234;1404;-47
2021/12/13 15:50:55;;;;;;;;;;;25.50;29.60;;;;;;508219;233;1222;-47
2021/12/13 15:52:57;;;;;;;;;;;25.50;29.60;;;;;;508608;234;1189;-47
2021/12/13 15:55:00;;;;;;;;;;;25.50;29.70;;;;;;508249;234;1053;-46
2021/12/13 15:57:00;;;;;;;;;;;25.40;29.60;;;;;;508457;234;2168;-47
2021/12/13 15:59:04;;;;;;;;;;;25.40;29.60;;;;;;508322;234;1091;-47
2021/12/13 16:01:03;;;;;;;;;;;25.50;29.70;;;;;;508079;234;2230;-47
2021/12/13 16:03:04;;;;;;;;;;;25.40;29.70;;;;;;508328;230;1562;-47
2021/12/13 16:05:06;;;;;;;;;;;25.40;29.70;;;;;;508335;234;1066;-47
2021/12/13 16:07:07;;;;;;;;;;;25.40;29.60;;;;;;508347;234;1299;-47
2021/12/13 16:09:08;;;;;;;;;;;25.50;29.70;;;;;;508467;234;1051;-47
2021/12/13 16:11:10;;;;;;;;;;;25.40;29.70;;;;;;508392;234;1294;-47
2021/12/13 16:13:11;;;;;;;;;;;25.50;29.60;;;;;;508420;234;1359;-47
2021/12/13 16:15:12;;;;;;;;;;;25.50;29.70;;;;;;508530;234;1102;-47
2021/12/13 16:17:14;;;;;;;;;;;25.40;29.70;;;;;;508233;234;2133;-47
2021/12/13 16:19:15;;;;;;;;;;;25.40;29.70;;;;;;508341;234;1438;-47
2021/12/13 16:21:16;;;;;;;;;;;25.40;29.70;;;;;;508303;234;1340;-47
2021/12/13 16:23:19;;;;;;;;;;;25.40;29.70;;;;;;508371;234;1220;-47
2021/12/13 16:25:19;;;;;;;;;;;25.40;29.70;;;;;;508517;234;2146;-47
2021/12/13 16:27:20;;;;;;;;;;;25.50;29.70;;;;;;508484;234;1241;-47
2021/12/13 16:29:22;;;;;;;;;;;25.50;29.70;;;;;;508542;234;1060;-47
2021/12/13 16:31:23;;;;;;;;;;;25.40;29.60;;;;;;508270;234;1348;-47
2021/12/13 16:33:25;;;;;;;;;;;25.50;29.70;;;;;;508367;234;1205;-47
2021/12/13 16:35:26;;;;;;;;;;;25.50;29.70;;;;;;508250;234;1312;-47
2021/12/13 16:37:28;;;;;;;;;;;25.50;29.60;;;;;;508217;234;2183;-47
2021/12/13 16:39:29;;;;;;;;;;;25.40;29.60;;;;;;508916;234;1126;-47
2021/12/13 16:41:30;;;;;;;;;;;25.40;29.70;;;;;;508626;234;1271;-47
2021/12/13 16:43:32;;;;;;;;;;;25.40;29.70;;;;;;508728;234;1057;-47
2021/12/13 16:45:33;;;;;;;;;;;25.40;29.70;;;;;;508522;234;1025;-47
2021/12/13 16:47:34;;;;;;;;;;;25.40;29.70;;;;;;508445;234;1211;-47
2021/12/13 16:49:36;;;;;;;;;;;25.40;29.70;;;;;;508518;234;1061;-47
2021/12/13 16:51:37;;;;;;;;;;;25.50;29.70;;;;;;508566;234;1413;-47
2021/12/13 16:53:38;;;;;;;;;;;25.50;29.70;;;;;;508656;234;1041;-47
2021/12/13 16:55:41;;;;;;;;;;;25.40;29.70;;;;;;508513;234;1151;-47
2021/12/13 16:57:41;;;;;;;;;;;25.40;29.60;;;;;;508174;234;2173;-47
2021/12/13 16:59:42;;;;;;;;;;;25.40;29.70;;;;;;508761;234;1043;-47
2021/12/13 17:01:43;;;;;;;;;;;25.50;29.70;;;;;;508427;234;1254;-47
2021/12/13 17:03:45;;;;;;;;;;;25.40;29.70;;;;;;508610;234;1187;-47
2021/12/13 17:05:46;;;;;;;;;;;25.40;29.70;;;;;;508700;234;1156;-47
2021/12/13 17:07:47;;;;;;;;;;;25.40;29.70;;;;;;508482;234;1138;-46
2021/12/13 17:09:49;;;;;;;;;;;25.40;29.70;;;;;;508777;234;1090;-47
2021/12/13 17:11:50;;;;;;;;;;;25.40;29.70;;;;;;508494;234;1268;-47
2021/12/13 17:13:52;;;;;;;;;;;25.40;29.70;;;;;;508689;234;961;-47
2021/12/13 17:15:53;;;;;;;;;;;25.40;29.70;;;;;;508399;234;1251;-47
2021/12/13 17:17:54;;;;;;;;;;;25.40;29.70;;;;;;508565;234;2129;-47
2021/12/13 17:19:58;;;;;;;;;;;25.40;29.70;;;;;;508463;234;1073;-47
2021/12/13 17:21:58;;;;;;;;;;;25.40;29.70;;;;;;508622;233;2350;-47
2021/12/13 17:24:00;;;;;;;;;;;25.40;29.70;;;;;;508428;234;1185;-47
2021/12/13 17:26:01;;;;;;;;;;;25.40;29.70;;;;;;508399;234;2216;-47
2021/12/13 17:28:02;;;;;;;;;;;25.40;29.70;;;;;;508471;234;1080;-47
2021/12/13 17:30:03;;;;;;;;;;;25.50;29.70;;;;;;508460;234;1082;-47
2021/12/13 17:32:05;;;;;;;;;;;25.50;29.70;;;;;;508464;234;1241;-47
2021/12/13 17:34:06;;;;;;;;;;;25.40;29.70;;;;;;508581;234;1180;-47
2021/12/13 17:36:07;;;;;;;;;;;25.40;29.70;;;;;;508839;234;960;-47
2021/12/13 17:38:09;;;;;;;;;;;25.40;29.70;;;;;;508663;234;2117;-47
2021/12/13 17:40:10;;;;;;;;;;;25.40;29.70;;;;;;508551;234;1046;-47
2021/12/13 17:42:11;;;;;;;;;;;25.40;29.70;;;;;;508496;234;1044;-47
2021/12/13 17:44:12;;;;;;;;;;;25.40;29.70;;;;;;508519;234;1149;-47
2021/12/13 17:46:14;;;;;;;;;;;25.40;29.70;;;;;;508571;234;1248;-47
2021/12/13 17:48:15;;;;;;;;;;;25.40;29.70;;;;;;508649;234;1352;-47
2021/12/13 17:50:16;;;;;;;;;;;25.40;29.70;;;;;;509013;234;1058;-47
2021/12/13 17:52:18;;;;;;;;;;;25.40;29.70;;;;;;508756;234;1240;-46
2021/12/13 17:54:19;;;;;;;;;;;25.40;29.70;;;;;;508419;234;1039;-47
2021/12/13 17:56:22;;;;;;;;;;;25.50;29.70;;;;;;508466;234;1510;-47
2021/12/13 17:58:22;;;;;;;;;;;25.50;29.70;;;;;;508564;234;2160;-46
2021/12/13 18:00:24;;;;;;;;;;;25.40;29.70;;;;;;509121;234;1205;-47
2021/12/13 18:02:25;;;;;;;;;;;25.40;29.70;;;;;;509065;234;1284;-47
2021/12/13 18:04:26;;;;;;;;;;;25.40;29.70;;;;;;508913;234;1198;-47
2021/12/13 18:06:28;;;;;;;;;;;25.40;29.70;;;;;;508659;233;1111;-47
2021/12/13 18:08:29;;;;;;;;;;;25.40;29.70;;;;;;509096;234;1111;-47
2021/12/13 18:10:31;;;;;;;;;;;25.40;29.70;;;;;;508670;234;1212;-47
2021/12/13 18:12:35;;;;;;;;;;;25.40;29.70;;;;;;508643;234;1241;-47
2021/12/13 18:14:34;;;;;;;;;;;25.40;29.70;;;;;;508555;234;2285;-47
2021/12/13 18:16:35;;;;;;;;;;;25.40;29.70;;;;;;508578;234;1557;-47
2021/12/13 18:18:37;;;;;;;;;;;25.40;29.70;;;;;;508942;234;2109;-47
2021/12/13 18:20:38;;;;;;;;;;;25.40;29.70;;;;;;509295;234;1327;-46
2021/12/13 18:22:39;;;;;;;;;;;25.40;29.70;;;;;;509065;234;1244;-46
2021/12/13 18:24:40;;;;;;;;;;;25.40;29.70;;;;;;508937;234;1161;-47
2021/12/13 18:26:42;;;;;;;;;;;25.40;29.70;;;;;;508593;234;1325;-46
2021/12/13 18:28:43;;;;;;;;;;;25.40;29.70;;;;;;508903;234;1007;-47
2021/12/13 18:30:44;;;;;;;;;;;25.40;29.70;;;;;;508931;234;1302;-46
2021/12/13 18:32:46;;;;;;;;;;;25.40;29.70;;;;;;509049;234;1435;-47
2021/12/13 18:34:47;;;;;;;;;;;25.40;29.70;;;;;;508815;234;1196;-47
2021/12/13 18:36:48;;;;;;;;;;;25.40;29.80;;;;;;508796;234;1265;-47
2021/12/13 18:38:50;;;;;;;;;;;25.40;29.70;;;;;;508716;234;2172;-47
2021/12/13 18:40:52;;;;;;;;;;;25.40;29.70;;;;;;508830;234;1216;-47
2021/12/13 18:42:59;;;;;;;;;;;25.40;29.70;;;;;;509134;234;1062;-47
2021/12/13 18:45:05;;;;;;;;;;;25.40;29.70;;;;;;508326;233;2138;-47
2021/12/13 18:46:56;;;;;;;;;;;25.40;29.70;;;;;;507724;234;2304;-47
2021/12/13 18:48:57;;;;;;;;;;;25.40;29.70;;;;;;508886;234;1152;-47
2021/12/13 18:50:58;;;;;;;;;;;25.40;29.70;;;;;;508778;234;1333;-47
2021/12/13 18:53:01;;;;;;;;;;;25.40;29.70;;;;;;508861;234;1098;-47
2021/12/13 18:55:02;;;;;;;;;;;25.40;29.70;;;;;;508776;234;1110;-47
2021/12/13 18:57:03;;;;;;;;;;;25.40;29.70;;;;;;508886;234;1411;-47
2021/12/13 18:59:04;;;;;;;;;;;25.40;29.70;;;;;;508859;234;2180;-47
2021/12/13 19:01:06;;;;;;;;;;;25.40;29.70;;;;;;508874;234;1341;-47
2021/12/13 19:03:07;;;;;;;;;;;25.40;29.70;;;;;;509015;234;1193;-47
2021/12/13 19:05:08;;;;;;;;;;;25.40;29.70;;;;;;508942;234;1189;-47
2021/12/13 19:07:10;;;;;;;;;;;25.40;29.70;;;;;;508958;234;1127;-47
2021/12/13 19:09:11;;;;;;;;;;;25.40;29.70;;;;;;509332;234;1044;-47
2021/12/13 19:11:12;;;;;;;;;;;25.40;29.70;;;;;;509361;234;1377;-47
2021/12/13 19:13:14;;;;;;;;;;;25.40;29.70;;;;;;509398;234;1057;-47
2021/12/13 19:15:15;;;;;;;;;;;25.40;29.70;;;;;;509385;234;1012;-47
2021/12/13 19:17:17;;;;;;;;;;;25.40;29.70;;;;;;509228;234;1258;-47
2021/12/13 19:19:18;;;;;;;;;;;25.40;29.70;;;;;;508849;234;2112;-47
2021/12/13 19:21:19;;;;;;;;;;;25.40;29.70;;;;;;509054;234;1130;-47
2021/12/13 19:23:21;;;;;;;;;;;25.40;29.70;;;;;;509212;234;1198;-47
2021/12/13 19:25:22;;;;;;;;;;;25.40;29.80;;;;;;509385;234;1046;-47
2021/12/13 19:27:30;;;;;;;;;;;25.40;29.80;;;;;;509037;234;1211;-47
2021/12/13 19:29:25;;;;;;;;;;;25.40;29.70;;;;;;509059;233;2327;-47
2021/12/13 19:31:27;;;;;;;;;;;25.40;29.70;;;;;;508904;234;1152;-47
2021/12/13 19:33:28;;;;;;;;;;;25.40;29.70;;;;;;509222;234;1174;-47
2021/12/13 19:35:29;;;;;;;;;;;25.40;29.70;;;;;;509015;234;1195;-47
2021/12/13 19:37:32;;;;;;;;;;;25.40;29.70;;;;;;508986;234;1257;-47
2021/12/13 19:39:32;;;;;;;;;;;25.40;29.70;;;;;;509232;233;2586;-47
2021/12/13 19:41:33;;;;;;;;;;;25.40;29.70;;;;;;509033;234;1229;-47
2021/12/13 19:43:35;;;;;;;;;;;25.40;29.70;;;;;;509130;234;1041;-47
2021/12/13 19:45:36;;;;;;;;;;;25.50;29.70;;;;;;509015;234;940;-47
2021/12/13 19:47:37;;;;;;;;;;;25.40;29.70;;;;;;508841;234;1197;-47
2021/12/13 19:49:39;;;;;;;;;;;25.40;29.70;;;;;;509337;234;1138;-47
2021/12/13 19:51:40;;;;;;;;;;;25.50;29.80;;;;;;509282;234;1476;-47
2021/12/13 19:53:42;;;;;;;;;;;25.40;29.70;;;;;;509133;234;1076;-47
2021/12/13 19:55:42;;;;;;;;;;;25.40;29.70;;;;;;509386;234;1174;-47
2021/12/13 19:57:44;;;;;;;;;;;25.40;29.70;;;;;;508993;234;1129;-47
2021/12/13 19:59:45;;;;;;;;;;;25.40;29.70;;;;;;509080;234;2104;-47
2021/12/13 20:01:46;;;;;;;;;;;25.40;29.70;;;;;;509009;234;1311;-47
2021/12/13 20:03:48;;;;;;;;;;;25.40;29.70;;;;;;508917;234;1049;-47
2021/12/13 20:05:49;;;;;;;;;;;25.50;29.70;;;;;;508876;234;2285;-47
2021/12/13 20:07:50;;;;;;;;;;;25.40;29.70;;;;;;508881;234;1206;-47
2021/12/13 20:09:52;;;;;;;;;;;25.40;29.70;;;;;;509104;234;1238;-47
2021/12/13 20:11:53;;;;;;;;;;;25.40;29.70;;;;;;509043;234;1325;-47
2021/12/13 20:14:01;;;;;;;;;;;25.40;29.70;;;;;;508912;234;1071;-47
2021/12/13 20:15:56;;;;;;;;;;;25.40;29.70;;;;;;508496;234;2029;-47
2021/12/13 20:17:57;;;;;;;;;;;25.50;29.70;;;;;;509263;234;1182;-47
2021/12/13 20:19:58;;;;;;;;;;;25.40;29.70;;;;;;509330;234;2097;-47
2021/12/13 20:22:00;;;;;;;;;;;25.40;29.70;;;;;;509022;234;1318;-46
2021/12/13 20:24:02;;;;;;;;;;;25.50;29.80;;;;;;509083;234;1156;-47
2021/12/13 20:26:03;;;;;;;;;;;25.50;29.70;;;;;;508909;234;1273;-46
2021/12/13 20:28:04;;;;;;;;;;;25.40;29.70;;;;;;508946;234;1247;-47
2021/12/13 20:30:05;;;;;;;;;;;25.40;29.70;;;;;;509291;234;1017;-47
2021/12/13 20:32:07;;;;;;;;;;;25.50;29.80;;;;;;509164;234;1343;-47
2021/12/13 20:34:08;;;;;;;;;;;25.50;29.70;;;;;;509353;234;1183;-47
2021/12/13 20:36:11;;;;;;;;;;;25.50;29.70;;;;;;509076;234;1425;-47
2021/12/13 20:38:11;;;;;;;;;;;25.50;29.70;;;;;;509130;233;2233;-47
2021/12/13 20:40:13;;;;;;;;;;;25.50;29.70;;;;;;509409;234;2163;-47
2021/12/13 20:42:13;;;;;;;;;;;25.50;29.70;;;;;;509084;233;2043;-47
2021/12/13 20:44:15;;;;;;;;;;;25.50;29.80;;;;;;509027;234;1105;-47
2021/12/13 20:46:16;;;;;;;;;;;25.40;29.70;;;;;;508874;234;1465;-47
2021/12/13 20:48:18;;;;;;;;;;;25.40;29.70;;;;;;509050;234;1128;-47
2021/12/13 20:50:19;;;;;;;;;;;25.50;29.70;;;;;;508974;234;1272;-47
2021/12/13 20:52:22;;;;;;;;;;;25.40;29.70;;;;;;509322;234;1204;-47